Time;durP1;ratioP1;P1;durP2;ratioP2;P2;SDS_P1;SDS_P2;PMS_P1;PMS_P2;Temp;Humidity;BMP_temperature;BMP_pressure;BME280_temperature;BME280_humidity;BME280_pressure;Samples;Min_cycle;Max_cycle;Signal;HPM_P1;HPM_P2
2022/12/04 00:01:24;;;;;;;1139.60;320.80;;;0.90;99.90;;;;;;5069299;28;20284;-52
2022/12/04 00:03:53;;;;;;;907.83;332.13;;;0.80;99.90;;;;;;5069438;28;20217;-52
2022/12/04 00:06:22;;;;;;;1999.90;994.73;;;0.80;99.90;;;;;;5068057;28;20305;-50
2022/12/04 00:08:51;;;;;;;397.57;208.23;;;0.80;99.90;;;;;;5072243;28;20765;-52
2022/12/04 00:11:24;;;;;;;368.57;208.83;;;0.80;99.90;;;;;;5072066;28;20737;-51
2022/12/04 00:13:52;;;;;;;1999.90;671.87;;;0.80;99.90;;;;;;5063579;28;20215;-51
2022/12/04 00:16:22;;;;;;;348.50;184.47;;;0.80;99.90;;;;;;5070813;28;20295;-51
2022/12/04 00:18:50;;;;;;;1376.10;581.53;;;0.80;99.90;;;;;;5071846;28;20714;-51
2022/12/04 00:21:20;;;;;;;1553.80;385.40;;;0.90;99.90;;;;;;5072077;28;20295;-51
2022/12/04 00:23:48;;;;;;;719.70;335.47;;;0.70;99.90;;;;;;5071270;28;20713;-51
2022/12/04 00:26:21;;;;;;;149.83;106.67;;;0.60;99.90;;;;;;5071631;28;20292;-51
2022/12/04 00:28:50;;;;;;;107.17;96.90;;;0.70;99.90;;;;;;5071602;28;20308;-52
2022/12/04 00:31:20;;;;;;;114.17;103.87;;;0.80;99.90;;;;;;5071524;28;20893;-51
2022/12/04 00:33:48;;;;;;;112.93;102.57;;;0.80;99.90;;;;;;5071449;28;20239;-51
2022/12/04 00:36:19;;;;;;;1778.40;537.23;;;0.80;99.90;;;;;;5070887;28;20648;-51
2022/12/04 00:38:47;;;;;;;1323.07;352.37;;;0.90;99.90;;;;;;5071055;28;20224;-52
2022/12/04 00:41:17;;;;;;;1999.90;776.53;;;0.90;99.90;;;;;;5071641;28;20242;-52
2022/12/04 00:43:47;;;;;;;1999.90;745.07;;;0.90;99.90;;;;;;5070519;28;20968;-50
2022/12/04 00:46:16;;;;;;;454.10;205.43;;;0.80;99.90;;;;;;5064407;28;20296;-52
2022/12/04 00:48:45;;;;;;;649.10;232.73;;;0.70;99.90;;;;;;5066364;28;20228;-51
2022/12/04 00:51:18;;;;;;;197.17;179.03;;;0.60;99.90;;;;;;5064512;28;20293;-52
2022/12/04 00:53:46;;;;;;;148.17;66.10;;;0.70;99.90;;;;;;5070893;28;20252;-52
2022/12/04 00:56:16;;;;;;;176.97;123.67;;;0.80;99.90;;;;;;5071106;28;20307;-51
2022/12/04 00:58:47;;;;;;;1056.77;270.17;;;0.80;99.90;;;;;;5070902;28;20636;-51
2022/12/04 01:01:18;;;;;;;144.10;63.17;;;0.90;99.90;;;;;;5070865;28;20292;-51
2022/12/04 01:03:47;;;;;;;394.03;215.40;;;0.90;99.90;;;;;;5070784;28;20278;-51
2022/12/04 01:06:20;;;;;;;1737.73;611.93;;;0.80;99.90;;;;;;5070858;28;20334;-52
2022/12/04 01:08:48;;;;;;;89.73;75.47;;;0.90;99.90;;;;;;5059070;28;20226;-51
2022/12/04 01:11:16;;;;;;;187.00;126.77;;;0.90;99.90;;;;;;5070529;28;20299;-50
2022/12/04 01:13:45;;;;;;;1999.90;674.50;;;0.90;99.90;;;;;;5070314;28;20309;-52
2022/12/04 01:16:18;;;;;;;1999.90;594.30;;;1.00;99.90;;;;;;5071134;28;20295;-51
2022/12/04 01:18:47;;;;;;;1777.37;612.73;;;0.90;99.90;;;;;;5057460;28;20290;-51
2022/12/04 01:21:15;;;;;;;1608.63;522.23;;;0.80;99.90;;;;;;5070999;28;20215;-52
2022/12/04 01:23:43;;;;;;;141.30;52.73;;;0.80;99.90;;;;;;5069848;28;20203;-52
2022/12/04 01:26:12;;;;;;;137.30;122.30;;;0.70;99.90;;;;;;5070518;28;20681;-52
2022/12/04 01:28:40;;;;;;;1726.03;515.73;;;0.80;99.90;;;;;;5070328;28;20320;-51
2022/12/04 01:31:10;;;;;;;108.87;80.93;;;0.90;99.90;;;;;;5070309;28;20640;-51
2022/12/04 01:33:41;;;;;;;619.50;184.57;;;0.80;99.90;;;;;;5070332;28;20218;-51
2022/12/04 01:36:12;;;;;;;381.97;218.50;;;0.80;99.90;;;;;;5069715;28;20234;-52
2022/12/04 01:38:40;;;;;;;1474.07;369.73;;;0.90;99.90;;;;;;5070517;28;20771;-51
2022/12/04 01:41:10;;;;;;;133.87;82.53;;;0.90;99.90;;;;;;5062231;28;20249;-51
2022/12/04 01:43:40;;;;;;;137.03;122.00;;;0.80;99.90;;;;;;5070082;28;20677;-51
2022/12/04 01:46:09;;;;;;;274.07;182.60;;;0.80;99.90;;;;;;5070193;28;20229;-51
2022/12/04 01:48:42;;;;;;;87.67;79.23;;;0.80;99.90;;;;;;5070186;28;20707;-51
2022/12/04 01:51:16;;;;;;;154.13;125.93;;;0.80;99.90;;;;;;5070121;28;20241;-51
2022/12/04 01:53:48;;;;;;;354.50;152.43;;;0.90;99.90;;;;;;5069801;28;20305;-52
2022/12/04 01:56:17;;;;;;;1999.90;650.93;;;1.00;99.90;;;;;;5069966;28;20549;-52
2022/12/04 01:58:51;;;;;;;1827.73;501.70;;;0.90;99.90;;;;;;5059864;28;20263;-51
2022/12/04 02:01:19;;;;;;;63.37;57.13;;;0.80;99.90;;;;;;5069542;28;20294;-51
2022/12/04 02:03:49;;;;;;;1761.70;401.00;;;0.90;99.90;;;;;;5069635;28;20212;-51
2022/12/04 02:06:17;;;;;;;1999.90;716.77;;;0.90;99.90;;;;;;5057761;28;20310;-51
2022/12/04 02:08:45;;;;;;;347.90;134.10;;;0.90;99.90;;;;;;5070312;28;20244;-51
2022/12/04 02:11:24;;;;;;;219.10;133.20;;;0.80;99.90;;;;;;5070031;28;20243;-51
2022/12/04 02:13:59;;;;;;;1999.90;816.43;;;0.80;99.90;;;;;;5062685;28;20228;-51
2022/12/04 02:16:35;;;;;;;1096.37;304.27;;;0.90;99.90;;;;;;5065182;28;20234;-51
2022/12/04 02:19:17;;;;;;;387.30;229.77;;;0.80;99.90;;;;;;5070159;28;20229;-52
2022/12/04 02:21:49;;;;;;;435.53;228.33;;;0.80;99.90;;;;;;5069145;28;20234;-52
2022/12/04 02:24:36;;;;;;;313.70;141.27;;;0.80;99.90;;;;;;5069798;28;20292;-51
2022/12/04 02:27:06;;;;;;;120.33;107.13;;;0.90;99.90;;;;;;5069340;28;20205;-51
2022/12/04 02:29:45;;;;;;;799.03;229.57;;;0.90;99.90;;;;;;5069667;28;20293;-51
2022/12/04 02:32:18;;;;;;;1398.03;459.40;;;0.90;99.90;;;;;;5064365;28;20292;-51
2022/12/04 02:34:52;;;;;;;119.80;103.33;;;0.90;99.90;;;;;;5062433;28;20210;-52
2022/12/04 02:37:27;;;;;;;1313.17;368.30;;;0.90;99.90;;;;;;5064321;28;20234;-51
2022/12/04 02:39:59;;;;;;;884.60;240.83;;;0.90;99.90;;;;;;5077839;28;20737;-52
2022/12/04 02:42:34;;;;;;;1298.30;336.10;;;0.90;99.90;;;;;;5082500;28;20202;-52
2022/12/04 02:45:08;;;;;;;102.07;91.27;;;0.80;99.90;;;;;;5071993;28;20304;-52
2022/12/04 02:47:39;;;;;;;1316.60;366.10;;;0.80;99.90;;;;;;5076229;28;20666;-51
2022/12/04 02:50:12;;;;;;;57.73;46.13;;;0.80;99.90;;;;;;5069481;28;20303;-52
2022/12/04 02:52:55;;;;;;;564.17;176.03;;;0.90;99.90;;;;;;5067818;28;20211;-52
2022/12/04 02:55:28;;;;;;;675.83;196.57;;;0.90;99.90;;;;;;5069361;28;20229;-51
2022/12/04 02:58:02;;;;;;;66.67;59.73;;;1.00;99.90;;;;;;5055558;28;20238;-52
2022/12/04 03:00:33;;;;;;;1999.90;999.90;;;1.00;99.90;;;;;;5068834;28;20676;-52
2022/12/04 03:03:05;;;;;;;1999.90;695.87;;;1.00;99.90;;;;;;5068716;28;20287;-52
2022/12/04 03:05:38;;;;;;;1002.07;388.07;;;1.00;99.90;;;;;;5069090;28;20235;-51
2022/12/04 03:08:11;;;;;;;104.33;86.70;;;1.00;99.90;;;;;;5068717;28;20248;-52
2022/12/04 03:10:46;;;;;;;98.93;78.00;;;1.10;99.90;;;;;;5069097;28;20694;-52
2022/12/04 03:13:18;;;;;;;948.03;338.17;;;1.00;99.90;;;;;;5068764;28;20322;-51
2022/12/04 03:15:50;;;;;;;1999.90;600.10;;;1.00;99.90;;;;;;5069025;28;20323;-51
2022/12/04 03:18:22;;;;;;;1999.90;679.17;;;1.00;99.90;;;;;;5068885;28;20317;-51
2022/12/04 03:20:59;;;;;;;252.10;97.13;;;1.00;99.90;;;;;;5060117;28;20294;-52
2022/12/04 03:23:32;;;;;;;128.03;114.00;;;0.90;99.90;;;;;;5068578;28;20226;-51
2022/12/04 03:26:04;;;;;;;1025.43;411.83;;;0.90;99.90;;;;;;5069022;28;20284;-52
2022/12/04 03:28:38;;;;;;;79.27;71.93;;;1.00;99.90;;;;;;5068950;28;20238;-51
2022/12/04 03:31:09;;;;;;;99.23;89.63;;;1.00;99.90;;;;;;5068661;28;20243;-51
2022/12/04 03:33:41;;;;;;;178.30;86.93;;;1.00;99.90;;;;;;5068429;28;20195;-52
2022/12/04 03:36:16;;;;;;;79.83;69.00;;;1.10;99.90;;;;;;5068876;28;20319;-52
2022/12/04 03:38:49;;;;;;;1999.90;426.57;;;1.00;99.90;;;;;;5068695;28;20311;-51
2022/12/04 03:41:24;;;;;;;1999.90;719.90;;;1.00;99.90;;;;;;5063629;28;20672;-52
2022/12/04 03:43:57;;;;;;;1999.90;743.33;;;1.00;99.90;;;;;;5067890;28;20296;-51
2022/12/04 03:46:31;;;;;;;991.30;319.30;;;0.90;99.90;;;;;;5068839;28;20311;-51
2022/12/04 03:49:09;;;;;;;1999.90;760.50;;;1.00;99.90;;;;;;5068480;28;20722;-52
2022/12/04 03:51:43;;;;;;;66.50;57.93;;;1.00;99.90;;;;;;5068598;28;20323;-51
2022/12/04 03:54:16;;;;;;;1073.90;359.27;;;1.00;99.90;;;;;;5067467;28;20390;-52
2022/12/04 03:56:50;;;;;;;1637.53;425.43;;;1.00;99.90;;;;;;5068661;28;20256;-51
2022/12/04 03:59:23;;;;;;;1106.40;335.13;;;1.00;99.90;;;;;;5068300;28;20289;-52
2022/12/04 04:01:56;;;;;;;996.57;308.77;;;0.90;99.90;;;;;;5068003;28;20268;-51
2022/12/04 04:04:30;;;;;;;135.90;124.53;;;0.90;99.90;;;;;;5068049;28;20786;-51
2022/12/04 04:07:04;;;;;;;1999.90;845.43;;;1.00;99.90;;;;;;5067786;28;20247;-51
2022/12/04 04:09:37;;;;;;;138.87;126.17;;;1.00;99.90;;;;;;5054609;28;20283;-51
2022/12/04 04:12:09;;;;;;;716.63;204.30;;;1.00;99.90;;;;;;5069959;28;20668;-51
2022/12/04 04:26:12;;;;;;;304.90;207.30;;;1.00;99.90;;;;;;5071807;28;20743;-51
2022/12/04 04:28:41;;;;;;;1999.90;671.60;;;0.90;99.90;;;;;;5071799;28;20270;-51
2022/12/04 04:31:18;;;;;;;368.83;181.50;;;0.80;99.90;;;;;;5070704;28;20278;-51
2022/12/04 04:33:58;;;;;;;55.20;46.43;;;0.90;99.90;;;;;;5071233;28;20207;-50
2022/12/04 04:36:36;;;;;;;105.80;95.57;;;0.80;99.90;;;;;;5070748;28;20753;-51
2022/12/04 04:39:14;;;;;;;79.30;65.60;;;0.90;99.90;;;;;;5071361;28;20776;-51
2022/12/04 04:41:49;;;;;;;318.13;150.27;;;0.90;99.90;;;;;;5070164;28;20688;-52
2022/12/04 04:44:25;;;;;;;104.60;85.50;;;1.00;99.90;;;;;;5071870;28;20240;-51
2022/12/04 04:46:58;;;;;;;89.37;80.63;;;1.10;99.90;;;;;;5071697;28;20243;-52
2022/12/04 04:49:32;;;;;;;161.77;135.77;;;1.10;99.90;;;;;;5071181;28;20320;-51
2022/12/04 04:52:01;;;;;;;151.47;86.87;;;1.10;99.90;;;;;;5071195;28;20234;-51
2022/12/04 04:54:33;;;;;;;1973.20;404.73;;;1.10;99.90;;;;;;5071311;28;20730;-51
2022/12/04 04:57:01;;;;;;;1999.90;514.70;;;1.00;99.90;;;;;;5070835;28;20786;-51
2022/12/04 04:59:30;;;;;;;312.23;155.80;;;1.00;99.90;;;;;;5071386;28;20268;-52
2022/12/04 05:01:58;;;;;;;530.60;207.73;;;1.10;99.90;;;;;;5070505;28;20312;-52
2022/12/04 05:04:27;;;;;;;102.80;89.97;;;1.10;99.90;;;;;;5056837;28;20292;-51
2022/12/04 05:06:55;;;;;;;1999.90;669.83;;;1.10;99.90;;;;;;5071016;28;20247;-51
2022/12/04 05:09:23;;;;;;;443.13;199.37;;;1.20;99.90;;;;;;5067750;28;20243;-52
2022/12/04 05:11:51;;;;;;;1999.90;609.10;;;1.20;99.90;;;;;;5070600;28;20294;-51
2022/12/04 05:14:19;;;;;;;167.53;72.83;;;1.20;99.90;;;;;;5071061;28;20214;-52
2022/12/04 05:16:47;;;;;;;297.70;133.20;;;1.20;99.90;;;;;;5070064;28;20756;-51
2022/12/04 05:22:02;;;;;;;55.27;48.30;;;1.20;99.90;;;;;;5070187;28;20319;-51
2022/12/04 05:24:30;;;;;;;119.43;106.83;;;1.20;99.90;;;;;;5070346;28;20311;-52
2022/12/04 05:26:58;;;;;;;72.30;59.30;;;1.20;99.90;;;;;;5060453;28;20203;-51
2022/12/04 05:29:26;;;;;;;60.40;48.53;;;1.20;99.90;;;;;;5070590;28;20292;-52
2022/12/04 05:32:02;;;;;;;1665.43;354.17;;;1.30;99.90;;;;;;5070534;28;20205;-51
2022/12/04 05:34:30;;;;;;;567.63;218.00;;;1.20;99.90;;;;;;5070856;28;20236;-51
2022/12/04 05:36:58;;;;;;;196.03;128.30;;;1.20;99.90;;;;;;5069992;28;20235;-51
2022/12/04 05:39:28;;;;;;;537.10;145.63;;;1.20;99.90;;;;;;5070727;28;20297;-51
2022/12/04 05:41:56;;;;;;;1999.90;559.43;;;1.20;99.90;;;;;;5069922;28;20314;-52
2022/12/04 05:44:24;;;;;;;1999.90;920.67;;;1.00;99.90;;;;;;5069691;28;20322;-51
2022/12/04 05:46:52;;;;;;;444.43;163.40;;;1.10;99.90;;;;;;5070277;28;20664;-52
2022/12/04 05:49:20;;;;;;;527.33;202.13;;;1.10;99.90;;;;;;5070358;28;20218;-52
2022/12/04 05:51:49;;;;;;;159.07;128.57;;;1.10;99.90;;;;;;5069718;28;20239;-51
2022/12/04 05:54:17;;;;;;;153.80;87.13;;;1.10;99.90;;;;;;5070554;28;20244;-52
2022/12/04 05:56:47;;;;;;;164.90;100.30;;;1.10;99.90;;;;;;5069954;28;20263;-51
2022/12/04 05:59:15;;;;;;;55.83;39.17;;;1.10;99.90;;;;;;5069089;28;20224;-52
2022/12/04 06:01:44;;;;;;;1999.90;460.67;;;1.20;99.90;;;;;;5067496;28;20232;-53
2022/12/04 06:04:12;;;;;;;177.20;116.83;;;1.10;99.90;;;;;;5069527;28;20856;-52
2022/12/04 06:06:40;;;;;;;854.20;256.70;;;1.10;99.90;;;;;;5069813;28;20308;-52
2022/12/04 06:09:08;;;;;;;1560.07;376.60;;;1.20;99.90;;;;;;5070095;28;20231;-52
2022/12/04 06:11:38;;;;;;;784.33;251.40;;;1.20;99.90;;;;;;5069871;28;20209;-51
2022/12/04 06:14:11;;;;;;;157.60;133.77;;;1.20;99.90;;;;;;5069535;28;20283;-52
2022/12/04 06:16:41;;;;;;;417.93;118.77;;;1.20;99.90;;;;;;5069551;28;20273;-51
2022/12/04 06:19:11;;;;;;;158.43;76.90;;;1.20;99.90;;;;;;5069890;28;20254;-51
2022/12/04 06:21:41;;;;;;;1105.70;356.83;;;1.30;99.90;;;;;;5069529;28;20645;-52
2022/12/04 06:24:13;;;;;;;1468.07;355.03;;;1.20;99.90;;;;;;5069086;28;20201;-52
2022/12/04 06:26:41;;;;;;;1978.83;538.53;;;1.20;99.90;;;;;;5069565;28;20213;-52
2022/12/04 06:29:32;;;;;;;422.40;203.77;;;1.20;99.90;;;;;;5069810;28;20211;-51
2022/12/04 06:32:00;;;;;;;1999.90;564.23;;;1.20;99.90;;;;;;5068896;28;20296;-51
2022/12/04 06:34:28;;;;;;;810.30;225.33;;;1.20;99.90;;;;;;5068900;28;20212;-50
2022/12/04 06:36:56;;;;;;;113.93;101.67;;;1.30;99.90;;;;;;5061949;28;20308;-52
2022/12/04 06:39:24;;;;;;;1999.90;735.83;;;1.20;99.90;;;;;;5065497;28;20651;-51
2022/12/04 06:41:52;;;;;;;97.77;79.73;;;1.30;99.90;;;;;;5068374;28;20771;-50
2022/12/04 06:44:20;;;;;;;330.43;148.40;;;1.30;99.90;;;;;;5069425;28;20295;-51
2022/12/04 06:46:50;;;;;;;305.73;145.63;;;1.30;99.90;;;;;;5069715;28;20571;-51
2022/12/04 06:49:21;;;;;;;168.43;100.93;;;1.30;99.90;;;;;;5069303;28;20211;-52
2022/12/04 06:51:49;;;;;;;1999.90;703.50;;;1.30;99.90;;;;;;5069071;28;20583;-52
2022/12/04 06:54:17;;;;;;;57.70;48.50;;;1.40;99.90;;;;;;5069326;28;20304;-51
2022/12/04 06:56:46;;;;;;;108.97;69.43;;;1.30;99.90;;;;;;5069261;28;20237;-51
2022/12/04 06:59:14;;;;;;;85.57;76.23;;;1.30;99.90;;;;;;5068934;28;20228;-52
2022/12/04 07:01:42;;;;;;;111.97;86.30;;;1.30;99.90;;;;;;5064218;28;20356;-52
2022/12/04 07:04:11;;;;;;;425.10;138.60;;;1.30;99.90;;;;;;5067157;28;20262;-52
2022/12/04 07:06:40;;;;;;;1459.67;284.77;;;1.30;99.90;;;;;;5069309;28;20243;-51
2022/12/04 07:09:10;;;;;;;203.10;108.67;;;1.20;99.90;;;;;;5069098;28;20316;-52
2022/12/04 07:11:38;;;;;;;655.23;242.90;;;1.20;99.90;;;;;;5069633;28;20312;-52
2022/12/04 07:14:07;;;;;;;1998.80;458.67;;;1.30;99.90;;;;;;5068928;28;20254;-51
2022/12/04 07:16:35;;;;;;;622.37;165.47;;;1.40;99.90;;;;;;5069108;28;20311;-51
2022/12/04 07:19:08;;;;;;;214.73;143.00;;;1.30;99.90;;;;;;5068597;28;20229;-50
2022/12/04 07:21:37;;;;;;;58.47;38.63;;;1.30;99.90;;;;;;5069002;28;20299;-52
2022/12/04 07:24:06;;;;;;;74.13;53.97;;;1.30;99.90;;;;;;5068464;28;20829;-51
2022/12/04 07:26:34;;;;;;;68.33;50.00;;;1.40;99.90;;;;;;5069009;28;20239;-50
2022/12/04 07:29:02;;;;;;;111.37;73.67;;;1.40;99.90;;;;;;5068797;28;20345;-52
2022/12/04 07:31:30;;;;;;;287.40;77.13;;;1.40;99.90;;;;;;5063934;28;20244;-50
2022/12/04 07:33:59;;;;;;;85.17;70.50;;;1.40;99.90;;;;;;5068562;28;20639;-51
2022/12/04 07:36:27;;;;;;;516.57;176.87;;;1.50;99.90;;;;;;5067700;28;20232;-52
2022/12/04 07:38:56;;;;;;;686.80;199.53;;;1.50;99.90;;;;;;5068577;28;20264;-51
2022/12/04 07:41:25;;;;;;;168.87;105.90;;;1.50;99.90;;;;;;5068946;28;20241;-51
2022/12/04 07:43:54;;;;;;;1999.90;558.43;;;1.50;99.90;;;;;;5068303;28;20289;-52
2022/12/04 07:46:25;;;;;;;1348.07;217.83;;;1.50;99.90;;;;;;5070004;28;20207;-51
2022/12/04 07:48:55;;;;;;;154.67;109.97;;;1.50;99.90;;;;;;5072979;28;20223;-52
2022/12/04 07:51:24;;;;;;;1332.57;269.93;;;1.40;99.90;;;;;;5072615;28;20299;-52
2022/12/04 07:53:53;;;;;;;385.37;123.13;;;1.50;99.90;;;;;;5072116;28;20290;-51
2022/12/04 07:56:23;;;;;;;1231.87;333.67;;;1.50;99.90;;;;;;5064424;28;20263;-51
2022/12/04 07:58:51;;;;;;;1999.90;728.73;;;1.50;99.90;;;;;;5068679;28;20223;-52
2022/12/04 08:01:20;;;;;;;1016.93;245.17;;;1.60;99.90;;;;;;5072264;28;20239;-51
2022/12/04 08:03:50;;;;;;;870.00;210.17;;;1.60;99.90;;;;;;5071748;28;20905;-51
2022/12/04 08:06:20;;;;;;;1999.90;553.83;;;1.50;99.90;;;;;;5072170;28;20212;-52
2022/12/04 08:08:49;;;;;;;1975.60;468.60;;;1.60;99.90;;;;;;5072545;28;20254;-51
2022/12/04 08:11:20;;;;;;;382.20;149.10;;;1.60;99.90;;;;;;5072381;28;20675;-51
2022/12/04 08:13:53;;;;;;;1641.10;343.53;;;1.60;99.90;;;;;;5070838;28;20240;-51
2022/12/04 08:16:21;;;;;;;1999.90;689.73;;;1.60;99.90;;;;;;5072064;28;20367;-51
2022/12/04 08:18:50;;;;;;;1763.33;374.60;;;1.60;99.90;;;;;;5071713;28;20230;-52
2022/12/04 08:21:20;;;;;;;1071.33;198.83;;;1.50;99.90;;;;;;5071854;28;20307;-51
2022/12/04 08:23:50;;;;;;;231.90;83.23;;;1.50;99.90;;;;;;5071859;28;20200;-52
2022/12/04 08:26:19;;;;;;;1336.07;249.73;;;1.50;99.90;;;;;;5063029;28;20228;-52
2022/12/04 08:28:49;;;;;;;1999.90;497.20;;;1.60;99.90;;;;;;5071194;28;20768;-57
2022/12/04 08:31:19;;;;;;;73.90;49.43;;;1.60;99.90;;;;;;5071449;28;20235;-51
2022/12/04 08:33:48;;;;;;;1681.63;382.53;;;1.70;99.90;;;;;;5071044;28;20214;-51
2022/12/04 08:36:20;;;;;;;1621.50;388.20;;;1.60;99.90;;;;;;5063014;28;20208;-52
2022/12/04 08:38:49;;;;;;;1232.53;268.67;;;1.60;99.90;;;;;;5059510;28;20320;-51
2022/12/04 08:41:20;;;;;;;1013.53;301.73;;;1.60;99.90;;;;;;5066640;28;20235;-52
2022/12/04 08:43:50;;;;;;;959.17;324.60;;;1.60;99.90;;;;;;5070981;28;20235;-52
2022/12/04 08:46:18;;;;;;;1999.90;724.83;;;1.70;99.90;;;;;;5066640;28;20316;-51
2022/12/04 08:48:47;;;;;;;747.73;208.93;;;1.70;99.90;;;;;;5061818;28;20307;-51
2022/12/04 08:51:17;;;;;;;1636.90;315.40;;;1.70;99.90;;;;;;5070988;28;20231;-51
2022/12/04 08:53:45;;;;;;;885.33;271.57;;;1.70;99.90;;;;;;5057140;28;20236;-51
2022/12/04 08:56:13;;;;;;;1045.77;276.73;;;1.70;99.90;;;;;;5063723;28;20693;-51
2022/12/04 08:58:41;;;;;;;78.43;62.30;;;1.70;99.90;;;;;;5069943;28;20311;-51
2022/12/04 09:01:13;;;;;;;383.23;139.30;;;1.70;99.90;;;;;;5071546;28;20212;-52
2022/12/04 09:03:42;;;;;;;782.40;188.13;;;1.70;99.90;;;;;;5058690;28;20285;-52
2022/12/04 09:06:12;;;;;;;244.13;145.53;;;1.70;99.90;;;;;;5057093;28;20235;-52
2022/12/04 09:08:41;;;;;;;480.43;127.13;;;1.80;99.90;;;;;;5065065;28;20256;-52
2022/12/04 09:11:12;;;;;;;132.47;82.37;;;1.80;99.90;;;;;;5070642;28;20251;-52
2022/12/04 09:13:41;;;;;;;123.50;82.63;;;1.90;99.90;;;;;;5070854;28;20317;-52
2022/12/04 09:16:12;;;;;;;1922.17;486.50;;;1.90;99.90;;;;;;5063273;28;20247;-51
2022/12/04 09:18:41;;;;;;;245.67;73.27;;;2.00;99.90;;;;;;5070672;28;20233;-52
2022/12/04 09:21:12;;;;;;;200.63;72.03;;;2.00;99.90;;;;;;5070772;28;20712;-52
2022/12/04 09:23:40;;;;;;;263.40;112.60;;;2.00;99.90;;;;;;5070889;28;20236;-51
2022/12/04 09:26:19;;;;;;;1822.93;424.50;;;2.10;99.90;;;;;;5070713;28;20243;-51
2022/12/04 09:28:47;;;;;;;1976.97;518.00;;;2.20;99.90;;;;;;5070448;28;20311;-51
2022/12/04 09:31:18;;;;;;;1999.90;905.77;;;2.10;99.90;;;;;;5070263;28;20212;-50
2022/12/04 09:33:46;;;;;;;372.20;136.43;;;2.20;99.90;;;;;;5070324;28;20607;-52
2022/12/04 09:36:15;;;;;;;283.10;142.00;;;2.10;99.90;;;;;;5065241;28;20300;-51
2022/12/04 09:38:44;;;;;;;1735.43;336.87;;;2.10;99.90;;;;;;5070241;28;20241;-52
2022/12/04 09:41:25;;;;;;;1999.90;562.13;;;2.20;99.90;;;;;;5070143;28;20303;-52
2022/12/04 09:43:57;;;;;;;365.53;183.80;;;2.20;99.90;;;;;;5069896;28;20304;-51
2022/12/04 09:46:34;;;;;;;1382.13;355.30;;;2.10;99.90;;;;;;5056791;28;20292;-51
2022/12/04 09:49:09;;;;;;;77.13;52.20;;;2.20;99.90;;;;;;5069875;28;20232;-52
2022/12/04 09:51:40;;;;;;;72.07;43.63;;;2.20;99.90;;;;;;5057097;28;20296;-51
2022/12/04 09:54:13;;;;;;;207.20;90.07;;;2.30;99.90;;;;;;5070399;28;20651;-51
2022/12/04 09:56:45;;;;;;;101.17;77.90;;;2.30;99.90;;;;;;5070433;28;20243;-52
2022/12/04 09:59:18;;;;;;;1101.97;237.83;;;2.30;99.90;;;;;;5070276;28;20311;-51
2022/12/04 10:01:51;;;;;;;1280.93;305.53;;;2.40;99.90;;;;;;5070040;28;20292;-52
2022/12/04 10:04:19;;;;;;;1999.90;999.90;;;2.30;99.90;;;;;;5069774;28;20296;-51
2022/12/04 10:06:54;;;;;;;1710.97;365.50;;;2.40;99.90;;;;;;5079277;28;20781;-52
2022/12/04 10:09:27;;;;;;;588.20;170.97;;;2.30;99.90;;;;;;5070598;28;20671;-52
2022/12/04 10:12:04;;;;;;;91.53;73.20;;;2.30;99.90;;;;;;5066869;28;20248;-51
2022/12/04 10:14:49;;;;;;;818.73;161.40;;;2.30;99.90;;;;;;5069510;28;20283;-51
2022/12/04 10:17:45;;;;;;;1999.90;695.57;;;2.30;99.90;;;;;;5069833;28;20235;-51
2022/12/04 10:20:28;;;;;;;812.60;223.57;;;2.20;99.90;;;;;;5069101;28;20294;-51
2022/12/04 10:23:07;;;;;;;554.03;163.73;;;2.20;99.90;;;;;;5069341;28;20808;-52
2022/12/04 10:25:41;;;;;;;1076.93;232.60;;;2.20;99.90;;;;;;5066598;28;20295;-51
2022/12/04 10:28:18;;;;;;;1999.90;556.10;;;2.20;99.90;;;;;;5055011;28;20251;-52
2022/12/04 10:30:47;;;;;;;883.30;213.03;;;2.20;99.90;;;;;;5069413;28;20244;-51
2022/12/04 10:33:23;;;;;;;68.63;61.23;;;2.30;99.90;;;;;;5068672;28;20244;-51
2022/12/04 10:35:53;;;;;;;106.53;79.47;;;2.30;99.90;;;;;;5066316;28;20245;-52
2022/12/04 10:38:31;;;;;;;104.47;84.70;;;2.40;99.90;;;;;;5067216;28;20231;-52
2022/12/04 10:41:04;;;;;;;141.40;69.00;;;2.50;99.90;;;;;;5062193;28;20662;-51
2022/12/04 10:43:43;;;;;;;1999.90;704.97;;;2.50;99.90;;;;;;5059375;28;20201;-51
2022/12/04 10:46:15;;;;;;;1999.90;728.37;;;2.60;99.90;;;;;;5069315;28;20288;-52
2022/12/04 10:48:48;;;;;;;600.77;142.50;;;2.70;99.90;;;;;;5049195;28;20653;-51
2022/12/04 10:51:17;;;;;;;1559.37;391.97;;;2.40;99.90;;;;;;5061496;28;20213;-51
2022/12/04 10:53:48;;;;;;;1999.90;484.67;;;2.50;99.90;;;;;;5054999;28;20291;-52
2022/12/04 10:56:18;;;;;;;153.30;85.53;;;2.50;99.90;;;;;;5068858;28;20666;-52
2022/12/04 10:58:56;;;;;;;74.87;59.97;;;2.50;99.90;;;;;;5069349;28;20332;-51
2022/12/04 11:01:25;;;;;;;260.10;103.73;;;2.50;99.90;;;;;;5069861;28;20241;-50
2022/12/04 11:04:00;;;;;;;240.70;81.83;;;2.60;99.90;;;;;;5068315;28;20235;-52
2022/12/04 11:06:30;;;;;;;1999.90;516.40;;;2.60;99.90;;;;;;5069242;28;20239;-51
2022/12/04 11:08:59;;;;;;;717.17;180.57;;;2.60;99.90;;;;;;5068719;28;20229;-50
2022/12/04 11:11:30;;;;;;;1999.90;883.13;;;2.60;99.90;;;;;;5069610;28;20303;-52
2022/12/04 11:14:06;;;;;;;1999.90;908.47;;;2.70;99.90;;;;;;5068592;28;20211;-51
2022/12/04 11:16:37;;;;;;;505.10;142.50;;;2.70;99.90;;;;;;5069369;28;20578;-50
2022/12/04 11:19:21;;;;;;;266.47;83.33;;;2.60;99.90;;;;;;5067905;28;20240;-52
2022/12/04 11:21:50;;;;;;;1250.17;258.20;;;2.70;99.90;;;;;;5068575;28;20251;-52
2022/12/04 11:24:23;;;;;;;1940.60;408.53;;;2.60;99.90;;;;;;5068506;28;20314;-51
2022/12/04 11:26:52;;;;;;;1991.03;408.23;;;2.60;99.90;;;;;;5069390;28;20196;-51
2022/12/04 11:29:31;;;;;;;1999.90;513.00;;;2.60;99.90;;;;;;5068693;28;20312;-52
2022/12/04 11:32:00;;;;;;;1999.90;538.60;;;2.60;99.90;;;;;;5068833;28;20232;-51
2022/12/04 11:34:40;;;;;;;758.33;272.13;;;2.70;99.90;;;;;;5067094;28;20777;-51
2022/12/04 11:37:20;;;;;;;1999.90;842.87;;;2.60;99.90;;;;;;5067009;28;20824;-51
2022/12/04 11:39:50;;;;;;;549.67;156.43;;;2.60;99.90;;;;;;5068849;28;20275;-51
2022/12/04 11:42:23;;;;;;;1602.30;395.33;;;2.60;99.90;;;;;;5067897;28;20883;-51
2022/12/04 11:44:54;;;;;;;1999.90;999.90;;;2.70;99.90;;;;;;5068614;28;20730;-52
2022/12/04 11:47:25;;;;;;;1973.50;543.13;;;2.80;99.90;;;;;;5068793;28;20291;-51
2022/12/04 11:50:10;;;;;;;1964.13;509.80;;;2.90;99.90;;;;;;5068728;28;20247;-52
2022/12/04 11:52:55;;;;;;;52.73;47.40;;;2.80;99.90;;;;;;5068537;28;20201;-50
2022/12/04 11:55:26;;;;;;;116.63;67.10;;;2.70;99.90;;;;;;5058980;28;20235;-51
2022/12/04 11:58:20;;;;;;;509.67;128.37;;;2.70;99.90;;;;;;5068386;28;20231;-51
2022/12/04 12:00:56;;;;;;;197.87;94.10;;;2.70;99.90;;;;;;5068732;28;20336;-51
2022/12/04 12:03:35;;;;;;;137.80;79.10;;;2.60;99.90;;;;;;5068340;28;20206;-52
2022/12/04 12:06:15;;;;;;;1999.90;452.37;;;2.70;99.90;;;;;;5068075;28;20209;-51
2022/12/04 12:09:08;;;;;;;112.33;80.73;;;2.70;99.90;;;;;;5068504;28;20252;-50
2022/12/04 12:11:40;;;;;;;1459.97;357.10;;;2.70;99.90;;;;;;5068709;28;20288;-51
2022/12/04 12:14:14;;;;;;;817.43;219.23;;;2.70;99.90;;;;;;5068261;28;20643;-51
2022/12/04 12:16:56;;;;;;;923.50;225.97;;;2.80;99.90;;;;;;5068362;28;20295;-51
2022/12/04 12:20:03;;;;;;;400.23;146.03;;;2.80;99.90;;;;;;5068289;28;20256;-51
2022/12/04 12:22:44;;;;;;;1749.23;422.00;;;2.70;99.90;;;;;;5032261;28;20255;-52
2022/12/04 12:25:19;;;;;;;81.43;61.37;;;2.70;99.90;;;;;;5068407;28;20249;-50
2022/12/04 12:28:09;;;;;;;1999.90;354.80;;;2.70;99.90;;;;;;5064843;28;20254;-52
2022/12/04 12:30:46;;;;;;;1438.87;361.73;;;2.70;99.90;;;;;;5068500;28;20255;-51
2022/12/04 12:33:19;;;;;;;1999.90;693.07;;;2.80;99.90;;;;;;5068477;28;20746;-52
2022/12/04 12:35:55;;;;;;;1999.90;720.03;;;2.80;99.90;;;;;;5070800;28;20204;-52
2022/12/04 12:38:28;;;;;;;1797.43;437.97;;;2.70;99.90;;;;;;5071929;28;20229;-50
2022/12/04 12:41:01;;;;;;;1566.03;241.97;;;2.80;99.90;;;;;;5071972;28;20220;-51
2022/12/04 12:43:31;;;;;;;1999.90;550.93;;;2.60;99.90;;;;;;5070402;28;20805;-50
2022/12/04 12:46:06;;;;;;;1323.57;356.00;;;2.60;99.90;;;;;;5064416;28;20213;-52
2022/12/04 12:48:40;;;;;;;1407.60;290.10;;;2.70;99.90;;;;;;5071745;28;20243;-52
2022/12/04 12:51:20;;;;;;;1999.90;457.07;;;2.60;99.90;;;;;;5071627;28;20737;-51
2022/12/04 12:54:09;;;;;;;1999.90;572.07;;;2.60;99.90;;;;;;5070889;28;20759;-50